Time;durP1;ratioP1;P1;durP2;ratioP2;P2;SDS_P1;SDS_P2;PMS_P1;PMS_P2;Temp;Humidity;BMP_temperature;BMP_pressure;BME280_temperature;BME280_humidity;BME280_pressure;Samples;Min_cycle;Max_cycle;Signal;HPM_P1;HPM_P2
2021/03/01 00:02:09;;;;;;;28.65;26.05;;;;;;;;;;5093795;28;20714;-76
2021/03/01 00:04:36;;;;;;;28.63;26.13;;;;;;;;;;5094091;28;20627;-76
2021/03/01 00:07:03;;;;;;;28.67;26.17;;;;;;;;;;5093634;28;20211;-76
2021/03/01 00:09:29;;;;;;;28.77;26.25;;;;;;;;;;5094084;28;20196;-76
2021/03/01 00:11:56;;;;;;;29.55;26.98;;;;;;;;;;5094060;28;20196;-76
2021/03/01 00:14:23;;;;;;;27.77;25.67;;;;;;;;;;5093678;28;20688;-76
2021/03/01 00:16:51;;;;;;;29.00;26.60;;;;;;;;;;5093547;28;20188;-76
2021/03/01 00:19:18;;;;;;;32.75;26.40;;;;;;;;;;5093893;28;20202;-76
2021/03/01 00:21:46;;;;;;;28.52;26.13;;;;;;;;;;5093601;28;20200;-76
2021/03/01 00:24:13;;;;;;;29.63;26.52;;;;;;;;;;5093530;28;20713;-76
2021/03/01 00:26:40;;;;;;;29.17;26.63;;;;;;;;;;5093744;28;20192;-76
2021/03/01 00:29:07;;;;;;;30.40;27.70;;;;;;;;;;5093497;28;20200;-76
2021/03/01 00:31:33;;;;;;;28.23;25.98;;;;;;;;;;5094133;28;20197;-76
2021/03/01 00:34:01;;;;;;;28.67;25.85;;;;;;;;;;5093568;28;20189;-76
2021/03/01 00:36:28;;;;;;;28.02;25.85;;;;;;;;;;5093466;28;20223;-75
2021/03/01 00:38:55;;;;;;;28.48;25.90;;;;;;;;;;5093923;28;20188;-76
2021/03/01 00:41:22;;;;;;;27.75;25.52;;;;;;;;;;5093461;28;20193;-75
2021/03/01 00:43:49;;;;;;;25.90;23.88;;;;;;;;;;5093388;28;20192;-76
2021/03/01 00:46:16;;;;;;;23.77;21.98;;;;;;;;;;5096571;28;20204;-76
2021/03/01 00:48:43;;;;;;;25.33;23.38;;;;;;;;;;5097253;27;20239;-76
2021/03/01 00:51:10;;;;;;;25.95;23.75;;;;;;;;;;5097747;28;20220;-76
2021/03/01 00:53:37;;;;;;;27.17;24.92;;;;;;;;;;5097847;28;20530;-76
2021/03/01 00:56:05;;;;;;;27.98;25.77;;;;;;;;;;5097011;28;20673;-76
2021/03/01 00:58:31;;;;;;;28.27;25.98;;;;;;;;;;5097331;28;20198;-76
2021/03/01 01:00:58;;;;;;;28.73;26.33;;;;;;;;;;5097120;28;20704;-76
2021/03/01 01:03:25;;;;;;;28.98;26.48;;;;;;;;;;5096246;28;20247;-75
2021/03/01 01:05:52;;;;;;;27.67;25.58;;;;;;;;;;5097201;28;20190;-76
2021/03/01 01:08:20;;;;;;;28.90;26.25;;;;;;;;;;5097283;28;20212;-76
2021/03/01 01:10:47;;;;;;;26.98;24.88;;;;;;;;;;5097427;28;20530;-76
2021/03/01 01:13:15;;;;;;;28.25;25.95;;;;;;;;;;5096823;28;20634;-76
2021/03/01 01:15:42;;;;;;;29.98;27.23;;;;;;;;;;5097183;28;20183;-76
2021/03/01 01:18:08;;;;;;;28.88;26.35;;;;;;;;;;5096836;28;20201;-76
2021/03/01 01:20:35;;;;;;;28.85;26.33;;;;;;;;;;5096895;28;20193;-76
2021/03/01 01:23:02;;;;;;;28.67;26.33;;;;;;;;;;5097049;28;20193;-76
2021/03/01 01:25:30;;;;;;;29.77;26.67;;;;;;;;;;5096858;28;20200;-75
2021/03/01 01:27:57;;;;;;;28.80;26.30;;;;;;;;;;5096674;28;20249;-76
2021/03/01 01:30:25;;;;;;;28.52;25.92;;;;;;;;;;5096822;28;20242;-76
2021/03/01 01:32:52;;;;;;;30.63;27.67;;;;;;;;;;5096888;28;20185;-76
2021/03/01 01:35:20;;;;;;;29.15;26.55;;;;;;;;;;5096433;28;20645;-76
2021/03/01 01:37:47;;;;;;;28.50;26.27;;;;;;;;;;5096916;28;20195;-75
2021/03/01 01:40:15;;;;;;;29.83;27.15;;;;;;;;;;5096700;28;20184;-76
2021/03/01 01:42:43;;;;;;;26.92;24.70;;;;;;;;;;5096646;28;20206;-76
2021/03/01 01:45:11;;;;;;;30.42;27.58;;;;;;;;;;5096416;28;20642;-76
2021/03/01 01:47:38;;;;;;;30.85;27.95;;;;;;;;;;5096477;28;20708;-76
2021/03/01 01:50:05;;;;;;;28.00;25.55;;;;;;;;;;5096271;28;20195;-76
2021/03/01 01:52:32;;;;;;;30.88;28.05;;;;;;;;;;5096218;28;20672;-76
2021/03/01 01:54:59;;;;;;;28.63;26.05;;;;;;;;;;5095269;28;20209;-76
2021/03/01 01:57:26;;;;;;;30.05;27.05;;;;;;;;;;5095410;28;20203;-76
2021/03/01 01:59:54;;;;;;;29.23;26.50;;;;;;;;;;5095915;28;20198;-76
2021/03/01 02:02:21;;;;;;;26.88;24.15;;;;;;;;;;5096088;28;20650;-75
2021/03/01 02:04:52;;;;;;;29.50;26.40;;;;;;;;;;5096076;28;20194;-76
2021/03/01 02:07:24;;;;;;;27.77;25.25;;;;;;;;;;5094953;28;20227;-75
2021/03/01 02:10:03;;;;;;;28.38;25.48;;;;;;;;;;5095819;28;20549;-76
2021/03/01 02:12:41;;;;;;;27.90;25.52;;;;;;;;;;5095897;28;20627;-76
2021/03/01 02:15:11;;;;;;;27.38;25.13;;;;;;;;;;5096105;28;20245;-76
2021/03/01 02:17:38;;;;;;;28.77;26.00;;;;;;;;;;5095780;28;20666;-76
2021/03/01 02:20:08;;;;;;;27.60;25.20;;;;;;;;;;5096373;28;20546;-76
2021/03/01 02:22:36;;;;;;;27.13;24.83;;;;;;;;;;5095947;28;20191;-76
2021/03/01 02:25:05;;;;;;;28.05;25.42;;;;;;;;;;5095609;28;20208;-76
2021/03/01 02:27:34;;;;;;;25.90;23.90;;;;;;;;;;5095704;28;20219;-76
2021/03/01 02:30:05;;;;;;;27.92;25.60;;;;;;;;;;5095553;28;20557;-76
2021/03/01 02:32:34;;;;;;;28.10;25.67;;;;;;;;;;5094740;28;20204;-76
2021/03/01 02:35:01;;;;;;;26.23;23.83;;;;;;;;;;5095501;28;20192;-76
2021/03/01 02:37:29;;;;;;;27.15;24.67;;;;;;;;;;5095406;28;20214;-76
2021/03/01 02:39:57;;;;;;;28.25;25.10;;;;;;;;;;5095760;28;20189;-76
2021/03/01 02:42:26;;;;;;;26.52;24.13;;;;;;;;;;5094201;28;20211;-76
2021/03/01 02:44:53;;;;;;;25.83;23.55;;;;;;;;;;5095658;28;20536;-76
2021/03/01 02:47:21;;;;;;;26.98;24.60;;;;;;;;;;5094918;28;20258;-76
2021/03/01 02:49:48;;;;;;;27.23;24.70;;;;;;;;;;5094288;28;20278;-76
2021/03/01 02:52:15;;;;;;;25.83;23.38;;;;;;;;;;5094860;28;20240;-75
2021/03/01 02:54:43;;;;;;;27.20;24.83;;;;;;;;;;5095227;28;20183;-76
2021/03/01 02:57:12;;;;;;;27.38;24.95;;;;;;;;;;5094706;28;20227;-76
2021/03/01 02:59:39;;;;;;;26.77;24.58;;;;;;;;;;5094014;28;20235;-76
2021/03/01 03:02:06;;;;;;;27.00;24.55;;;;;;;;;;5094915;28;20626;-76
2021/03/01 03:04:33;;;;;;;27.05;24.85;;;;;;;;;;5095521;28;20196;-76
2021/03/01 03:07:01;;;;;;;27.55;25.25;;;;;;;;;;5095104;28;20185;-76
2021/03/01 03:09:29;;;;;;;26.38;24.08;;;;;;;;;;5095329;28;20589;-76
2021/03/01 03:11:56;;;;;;;27.30;24.73;;;;;;;;;;5095032;28;20245;-76
2021/03/01 03:14:26;;;;;;;28.00;25.38;;;;;;;;;;5095021;28;20551;-76
2021/03/01 03:16:54;;;;;;;25.30;23.20;;;;;;;;;;5094948;28;20191;-76
2021/03/01 03:19:22;;;;;;;27.60;25.20;;;;;;;;;;5094902;28;20191;-76
2021/03/01 03:21:49;;;;;;;26.88;24.58;;;;;;;;;;5094971;28;20218;-76
2021/03/01 03:24:16;;;;;;;27.50;24.98;;;;;;;;;;5094741;28;20184;-76
2021/03/01 03:26:43;;;;;;;28.90;25.92;;;;;;;;;;5094521;28;20237;-76
2021/03/01 03:29:10;;;;;;;27.50;24.75;;;;;;;;;;5094286;28;20230;-76
2021/03/01 03:31:37;;;;;;;29.20;26.25;;;;;;;;;;5094783;28;20195;-76
2021/03/01 03:34:05;;;;;;;25.33;23.40;;;;;;;;;;5094501;28;20197;-76
2021/03/01 03:36:33;;;;;;;26.98;24.63;;;;;;;;;;5094304;28;20680;-76
2021/03/01 03:39:03;;;;;;;27.42;24.85;;;;;;;;;;5094398;28;20187;-76
2021/03/01 03:41:30;;;;;;;28.10;25.33;;;;;;;;;;5094213;28;20198;-76
2021/03/01 03:43:57;;;;;;;27.80;25.23;;;;;;;;;;5094551;28;20198;-76
2021/03/01 03:46:26;;;;;;;28.15;25.42;;;;;;;;;;5094331;28;20189;-76
2021/03/01 03:48:54;;;;;;;26.73;24.60;;;;;;;;;;5093955;28;20238;-76
2021/03/01 03:51:22;;;;;;;26.42;24.02;;;;;;;;;;5093119;28;20714;-76
2021/03/01 03:53:50;;;;;;;28.30;25.58;;;;;;;;;;5094483;28;20199;-76
2021/03/01 03:56:21;;;;;;;28.02;25.25;;;;;;;;;;5094387;28;20187;-76
2021/03/01 03:58:51;;;;;;;27.65;24.90;;;;;;;;;;5093928;28;20188;-76
2021/03/01 04:01:19;;;;;;;28.50;25.80;;;;;;;;;;5094141;28;20219;-76
2021/03/01 04:03:47;;;;;;;28.88;25.90;;;;;;;;;;5094238;28;20191;-77
2021/03/01 04:06:16;;;;;;;27.73;25.23;;;;;;;;;;5094298;28;20209;-76
2021/03/01 04:08:45;;;;;;;29.58;26.58;;;;;;;;;;5094059;28;20253;-76
2021/03/01 04:11:12;;;;;;;27.63;24.92;;;;;;;;;;5092628;28;20203;-76
2021/03/01 04:13:40;;;;;;;29.23;26.23;;;;;;;;;;5093493;28;20207;-76
2021/03/01 04:16:09;;;;;;;27.77;25.17;;;;;;;;;;5092843;28;20195;-76
2021/03/01 04:18:41;;;;;;;30.13;27.10;;;;;;;;;;5092700;28;20204;-76
2021/03/01 04:21:09;;;;;;;30.13;26.95;;;;;;;;;;5092597;28;20261;-76
2021/03/01 04:23:37;;;;;;;28.55;25.80;;;;;;;;;;5093618;28;20192;-76
2021/03/01 04:26:04;;;;;;;27.58;25.05;;;;;;;;;;5093999;28;20633;-76
2021/03/01 04:28:32;;;;;;;28.63;26.08;;;;;;;;;;5093467;28;20224;-76
2021/03/01 04:31:01;;;;;;;29.30;26.15;;;;;;;;;;5093954;28;20197;-76
2021/03/01 04:33:29;;;;;;;31.08;28.23;;;;;;;;;;5093922;28;20239;-76
2021/03/01 04:35:57;;;;;;;29.30;26.52;;;;;;;;;;5094125;28;20191;-76
2021/03/01 04:38:24;;;;;;;28.75;25.85;;;;;;;;;;5093553;28;20189;-76
2021/03/01 04:40:52;;;;;;;26.65;24.25;;;;;;;;;;5093640;28;20206;-76
2021/03/01 04:43:20;;;;;;;29.38;26.50;;;;;;;;;;5093744;28;20191;-77
2021/03/01 04:45:47;;;;;;;28.00;25.35;;;;;;;;;;5093503;28;20202;-76
2021/03/01 04:48:16;;;;;;;28.08;25.42;;;;;;;;;;5093316;28;20244;-76
2021/03/01 04:50:44;;;;;;;28.40;25.60;;;;;;;;;;5093404;28;20196;-76
2021/03/01 04:53:11;;;;;;;28.70;25.80;;;;;;;;;;5092268;28;20224;-76
2021/03/01 04:55:39;;;;;;;28.00;23.90;;;;;;;;;;5093593;28;20191;-76
2021/03/01 04:58:08;;;;;;;27.13;24.58;;;;;;;;;;5093358;28;20185;-76
2021/03/01 05:00:36;;;;;;;29.00;26.17;;;;;;;;;;5092199;28;20227;-77
2021/03/01 05:03:03;;;;;;;30.33;26.50;;;;;;;;;;5093324;28;20215;-76
2021/03/01 05:05:30;;;;;;;29.13;26.38;;;;;;;;;;5093290;28;20190;-75
2021/03/01 05:07:58;;;;;;;29.63;26.90;;;;;;;;;;5093421;28;20224;-76
2021/03/01 05:10:26;;;;;;;26.13;23.85;;;;;;;;;;5093248;28;20646;-76
2021/03/01 05:12:53;;;;;;;29.25;26.45;;;;;;;;;;5094200;28;20184;-76
2021/03/01 05:15:21;;;;;;;28.52;25.83;;;;;;;;;;5093449;28;20201;-76
2021/03/01 05:17:48;;;;;;;27.00;24.58;;;;;;;;;;5093240;28;20223;-76
2021/03/01 05:20:15;;;;;;;29.67;26.58;;;;;;;;;;5093558;28;20193;-76
2021/03/01 05:22:42;;;;;;;28.40;25.77;;;;;;;;;;5093034;28;20184;-76
2021/03/01 05:25:10;;;;;;;27.70;25.00;;;;;;;;;;5093416;28;20199;-76
2021/03/01 05:27:37;;;;;;;28.60;26.00;;;;;;;;;;5093312;28;20285;-76
2021/03/01 05:30:05;;;;;;;27.30;24.85;;;;;;;;;;5093060;28;20630;-76
2021/03/01 05:32:33;;;;;;;26.75;24.33;;;;;;;;;;5096171;28;20194;-76
2021/03/01 05:35:00;;;;;;;27.75;25.35;;;;;;;;;;5096867;28;20193;-76
2021/03/01 05:37:27;;;;;;;26.95;24.30;;;;;;;;;;5096689;28;20227;-76
2021/03/01 05:39:54;;;;;;;27.33;24.90;;;;;;;;;;5096683;28;20250;-76
2021/03/01 05:42:22;;;;;;;27.08;24.48;;;;;;;;;;5096537;28;20234;-76
2021/03/01 05:44:49;;;;;;;27.15;24.80;;;;;;;;;;5095668;28;20616;-76
2021/03/01 05:47:16;;;;;;;27.50;24.75;;;;;;;;;;5096122;28;20204;-76
2021/03/01 05:49:44;;;;;;;27.35;24.85;;;;;;;;;;5056560;28;20186;-76
2021/03/01 05:52:12;;;;;;;27.40;24.50;;;;;;;;;;5054734;28;20647;-76
2021/03/01 05:54:40;;;;;;;29.08;26.13;;;;;;;;;;5055915;28;20605;-76
2021/03/01 05:57:07;;;;;;;25.20;23.05;;;;;;;;;;5056307;28;20195;-76
2021/03/01 05:59:34;;;;;;;26.73;24.30;;;;;;;;;;5055935;28;20724;-77
2021/03/01 06:02:01;;;;;;;28.73;25.98;;;;;;;;;;5056015;28;20194;-76
2021/03/01 06:04:28;;;;;;;27.00;24.70;;;;;;;;;;5055918;28;20190;-76
2021/03/01 06:06:56;;;;;;;26.55;24.25;;;;;;;;;;5056070;28;20546;-76
2021/03/01 06:09:23;;;;;;;27.55;25.25;;;;;;;;;;5055728;28;20614;-76
2021/03/01 06:11:50;;;;;;;27.00;24.65;;;;;;;;;;5055925;28;20185;-76
2021/03/01 06:14:17;;;;;;;28.52;25.77;;;;;;;;;;5055994;28;20239;-76
2021/03/01 06:17:09;;;;;;;29.73;26.83;;;;;;;;;;5055712;28;20594;-76
2021/03/01 06:19:50;;;;;;;28.05;25.35;;;;;;;;;;5055502;28;20243;-75
2021/03/01 06:22:19;;;;;;;31.08;27.92;;;;;;;;;;5055633;28;20201;-75
2021/03/01 06:25:00;;;;;;;28.65;26.30;;;;;;;;;;5055761;28;20240;-75
2021/03/01 06:27:27;;;;;;;26.33;24.13;;;;;;;;;;5055637;28;20197;-75
2021/03/01 06:30:08;;;;;;;28.95;26.35;;;;;;;;;;5054400;28;20205;-75
2021/03/01 06:32:36;;;;;;;26.25;24.05;;;;;;;;;;5037817;28;20682;-75
2021/03/01 06:35:04;;;;;;;29.10;25.77;;;;;;;;;;5054085;28;20195;-75
2021/03/01 06:37:31;;;;;;;29.75;27.25;;;;;;;;;;5054835;28;20189;-75
2021/03/01 06:39:58;;;;;;;28.88;26.38;;;;;;;;;;5055259;28;20197;-75
2021/03/01 06:42:27;;;;;;;35.17;27.42;;;;;;;;;;5054625;28;20224;-75
2021/03/01 06:45:13;;;;;;;30.08;27.13;;;;;;;;;;5054968;28;20195;-75
2021/03/01 06:47:44;;;;;;;29.40;26.88;;;;;;;;;;5061331;28;20246;-75
2021/03/01 06:50:22;;;;;;;29.20;26.60;;;;;;;;;;5095243;28;20194;-75
2021/03/01 06:52:50;;;;;;;29.20;26.70;;;;;;;;;;5095172;28;20197;-75
2021/03/01 06:55:18;;;;;;;30.30;27.58;;;;;;;;;;5095067;28;20270;-75
2021/03/01 06:57:45;;;;;;;27.70;25.20;;;;;;;;;;5095071;28;20191;-75
2021/03/01 07:00:13;;;;;;;27.10;24.73;;;;;;;;;;5094730;28;20565;-75
2021/03/01 07:02:41;;;;;;;28.90;26.45;;;;;;;;;;5093723;28;20207;-75
2021/03/01 07:05:09;;;;;;;27.70;25.20;;;;;;;;;;5095020;28;20248;-75
2021/03/01 07:07:35;;;;;;;29.83;27.20;;;;;;;;;;5094701;28;20227;-75
2021/03/01 07:10:04;;;;;;;27.90;25.38;;;;;;;;;;5094699;28;20188;-76
2021/03/01 07:12:41;;;;;;;26.63;24.17;;;;;;;;;;5094723;28;20216;-75
2021/03/01 07:15:08;;;;;;;26.00;23.85;;;;;;;;;;5094976;28;20188;-75
2021/03/01 07:17:37;;;;;;;28.60;26.05;;;;;;;;;;5094551;28;20199;-75
2021/03/01 07:20:05;;;;;;;27.08;24.88;;;;;;;;;;5093762;28;20184;-74
2021/03/01 07:22:32;;;;;;;24.80;22.73;;;;;;;;;;5094282;28;20544;-75
2021/03/01 07:24:59;;;;;;;28.50;26.00;;;;;;;;;;5094518;28;20641;-76
2021/03/01 07:27:27;;;;;;;24.20;22.20;;;;;;;;;;5094712;28;20203;-75
2021/03/01 07:29:57;;;;;;;25.17;23.27;;;;;;;;;;5094518;28;20548;-74
2021/03/01 07:32:26;;;;;;;25.42;23.33;;;;;;;;;;5094434;28;20188;-75
2021/03/01 07:34:54;;;;;;;25.98;23.92;;;;;;;;;;5093333;28;20200;-74
2021/03/01 07:37:21;;;;;;;25.75;23.48;;;;;;;;;;5094566;28;20187;-75
2021/03/01 07:39:48;;;;;;;23.90;21.95;;;;;;;;;;5094132;28;20191;-75
2021/03/01 07:42:16;;;;;;;25.35;23.20;;;;;;;;;;5094312;28;20192;-75
2021/03/01 07:44:46;;;;;;;25.80;23.58;;;;;;;;;;5093108;28;20245;-75
2021/03/01 07:47:13;;;;;;;25.02;22.92;;;;;;;;;;5094070;28;20199;-75
2021/03/01 07:49:41;;;;;;;24.60;22.70;;;;;;;;;;5094020;28;20261;-75
2021/03/01 07:52:09;;;;;;;25.95;23.52;;;;;;;;;;5093919;28;20194;-74
2021/03/01 07:54:51;;;;;;;24.15;22.25;;;;;;;;;;5093345;28;20195;-74
2021/03/01 07:57:19;;;;;;;24.40;22.40;;;;;;;;;;5094013;28;20188;-75
2021/03/01 07:59:47;;;;;;;25.27;23.27;;;;;;;;;;5093774;28;20233;-75
2021/03/01 08:02:15;;;;;;;25.35;23.30;;;;;;;;;;5092503;28;20232;-75
2021/03/01 08:04:42;;;;;;;25.85;23.77;;;;;;;;;;5093897;28;20193;-74
2021/03/01 08:07:09;;;;;;;24.73;22.77;;;;;;;;;;5093835;28;20254;-75
2021/03/01 08:09:44;;;;;;;24.60;22.80;;;;;;;;;;5093737;28;20216;-75
2021/03/01 08:12:11;;;;;;;25.83;23.83;;;;;;;;;;5093715;28;20196;-74
2021/03/01 08:14:58;;;;;;;26.42;24.42;;;;;;;;;;5093782;28;20226;-74
2021/03/01 08:17:32;;;;;;;26.30;24.02;;;;;;;;;;5094039;28;20241;-75
2021/03/01 08:20:00;;;;;;;27.70;22.95;;;;;;;;;;5094036;28;20192;-75
2021/03/01 08:22:27;;;;;;;24.50;22.50;;;;;;;;;;5092461;28;20200;-75
2021/03/01 08:24:55;;;;;;;24.85;22.75;;;;;;;;;;5094059;28;20266;-75
2021/03/01 08:27:41;;;;;;;26.40;24.05;;;;;;;;;;5092605;28;20211;-74
2021/03/01 08:30:18;;;;;;;26.00;23.95;;;;;;;;;;5093620;28;20187;-74
2021/03/01 08:32:46;;;;;;;24.13;22.33;;;;;;;;;;5093633;28;20188;-75
2021/03/01 08:35:22;;;;;;;26.30;24.00;;;;;;;;;;5093530;28;20669;-75
2021/03/01 08:37:50;;;;;;;26.15;23.85;;;;;;;;;;5093806;28;20196;-75
2021/03/01 08:40:20;;;;;;;26.10;24.00;;;;;;;;;;5092284;28;20287;-76
2021/03/01 08:42:47;;;;;;;26.10;23.70;;;;;;;;;;5093401;28;20195;-74
2021/03/01 08:45:21;;;;;;;25.08;23.08;;;;;;;;;;5093490;28;20633;-75
2021/03/01 08:47:49;;;;;;;25.13;23.13;;;;;;;;;;5093501;28;20224;-75
2021/03/01 08:50:16;;;;;;;25.15;23.15;;;;;;;;;;5093382;28;20226;-73
2021/03/01 08:52:49;;;;;;;26.85;24.65;;;;;;;;;;5093189;28;20267;-74
2021/03/01 08:55:18;;;;;;;25.05;23.15;;;;;;;;;;5093637;28;20188;-73
2021/03/01 08:58:04;;;;;;;26.20;24.10;;;;;;;;;;5093459;28;20586;-73
2021/03/01 09:00:33;;;;;;;26.63;24.23;;;;;;;;;;5093433;28;20575;-73
2021/03/01 09:03:09;;;;;;;25.58;23.45;;;;;;;;;;5093467;28;20189;-74
2021/03/01 09:05:36;;;;;;;26.30;24.20;;;;;;;;;;5093040;28;20665;-73
2021/03/01 09:08:04;;;;;;;25.58;23.27;;;;;;;;;;5088338;28;20234;-73
2021/03/01 09:10:37;;;;;;;26.67;24.35;;;;;;;;;;5077152;28;20193;-73
2021/03/01 09:13:04;;;;;;;26.92;24.73;;;;;;;;;;5076714;28;20634;-73
2021/03/01 09:15:33;;;;;;;25.55;23.45;;;;;;;;;;5077226;28;20201;-73
2021/03/01 09:17:59;;;;;;;24.52;22.52;;;;;;;;;;5077010;28;20200;-73
2021/03/01 09:20:26;;;;;;;25.98;23.70;;;;;;;;;;5075659;28;20673;-73
2021/03/01 09:22:53;;;;;;;24.95;23.13;;;;;;;;;;5076332;28;20658;-73
2021/03/01 09:25:27;;;;;;;24.33;22.48;;;;;;;;;;5075586;28;20190;-73
2021/03/01 09:27:54;;;;;;;25.50;23.40;;;;;;;;;;5076472;28;20212;-73
2021/03/01 09:30:21;;;;;;;24.70;23.00;;;;;;;;;;5075528;28;20241;-76
2021/03/01 09:32:56;;;;;;;23.38;21.77;;;;;;;;;;5074971;28;20274;-73
2021/03/01 09:35:24;;;;;;;24.05;22.25;;;;;;;;;;5076570;28;20196;-73
2021/03/01 09:37:51;;;;;;;24.17;22.48;;;;;;;;;;5076177;28;20228;-73
2021/03/01 09:40:19;;;;;;;25.73;23.73;;;;;;;;;;5075813;28;20632;-73
2021/03/01 09:42:50;;;;;;;24.67;22.88;;;;;;;;;;5076312;28;20196;-73
2021/03/01 09:45:17;;;;;;;25.05;23.15;;;;;;;;;;5073037;28;20187;-73
2021/03/01 09:47:45;;;;;;;25.88;23.88;;;;;;;;;;5076047;28;20283;-74
2021/03/01 09:50:13;;;;;;;25.48;23.48;;;;;;;;;;5077146;28;20208;-74
2021/03/01 09:52:40;;;;;;;25.55;23.48;;;;;;;;;;5075812;28;20209;-75
2021/03/01 09:55:08;;;;;;;23.92;22.00;;;;;;;;;;5076352;28;20196;-74
2021/03/01 09:57:35;;;;;;;24.48;22.67;;;;;;;;;;5075935;28;20200;-74
2021/03/01 10:00:17;;;;;;;23.33;21.60;;;;;;;;;;5076230;28;20247;-74
2021/03/01 10:02:53;;;;;;;25.00;22.95;;;;;;;;;;5075879;28;20649;-74
2021/03/01 10:05:22;;;;;;;23.60;21.80;;;;;;;;;;5076110;28;20596;-74
2021/03/01 10:07:54;;;;;;;23.42;21.83;;;;;;;;;;5075661;28;20192;-74
2021/03/01 10:10:21;;;;;;;23.83;21.95;;;;;;;;;;5076069;28;20185;-74
2021/03/01 10:12:49;;;;;;;23.65;21.90;;;;;;;;;;5076080;28;20248;-75
2021/03/01 10:15:16;;;;;;;24.50;22.70;;;;;;;;;;5074590;28;20191;-74
2021/03/01 10:17:43;;;;;;;23.30;21.70;;;;;;;;;;5074374;28;20192;-76
2021/03/01 10:20:11;;;;;;;23.35;21.75;;;;;;;;;;5075274;28;20558;-74
2021/03/01 10:22:56;;;;;;;22.13;20.63;;;;;;;;;;5075586;28;20190;-74
2021/03/01 10:25:29;;;;;;;22.60;20.95;;;;;;;;;;5074371;28;20749;-74
2021/03/01 10:27:56;;;;;;;22.00;20.50;;;;;;;;;;5074840;28;20229;-75
2021/03/01 10:30:23;;;;;;;21.77;20.38;;;;;;;;;;5073390;28;20207;-74
2021/03/01 10:32:50;;;;;;;21.63;20.27;;;;;;;;;;5075088;28;20205;-74
2021/03/01 10:35:17;;;;;;;21.92;20.52;;;;;;;;;;5075324;28;20193;-74
2021/03/01 10:37:59;;;;;;;21.60;20.27;;;;;;;;;;5075383;28;20228;-74
2021/03/01 10:40:26;;;;;;;22.23;20.83;;;;;;;;;;5074939;28;20184;-74
2021/03/01 10:42:55;;;;;;;22.63;21.23;;;;;;;;;;5075060;28;20551;-74
2021/03/01 10:45:22;;;;;;;22.30;20.83;;;;;;;;;;5074575;28;20194;-74
2021/03/01 10:47:59;;;;;;;22.63;21.02;;;;;;;;;;5073398;28;20240;-74
2021/03/01 10:50:26;;;;;;;23.00;21.50;;;;;;;;;;5075033;28;20196;-74
2021/03/01 10:52:53;;;;;;;23.25;21.77;;;;;;;;;;5074613;28;20189;-74
2021/03/01 10:55:20;;;;;;;23.77;22.13;;;;;;;;;;5073818;28;20241;-74
2021/03/01 10:57:47;;;;;;;24.58;22.80;;;;;;;;;;5074713;28;20194;-74
2021/03/01 11:00:16;;;;;;;22.70;21.20;;;;;;;;;;5074592;28;20551;-74
2021/03/01 11:02:43;;;;;;;23.42;21.80;;;;;;;;;;5074436;28;20201;-74
2021/03/01 11:05:10;;;;;;;22.77;21.27;;;;;;;;;;5074886;28;20200;-74
2021/03/01 11:07:37;;;;;;;22.55;21.15;;;;;;;;;;5074417;28;20193;-74
2021/03/01 11:10:05;;;;;;;22.58;21.05;;;;;;;;;;5073457;28;20235;-74
2021/03/01 11:12:32;;;;;;;22.95;21.35;;;;;;;;;;5074618;28;20223;-74
2021/03/01 11:14:58;;;;;;;23.13;21.48;;;;;;;;;;5074592;28;20189;-74
2021/03/01 11:17:26;;;;;;;23.33;21.63;;;;;;;;;;5075088;28;20281;-74
2021/03/01 11:19:53;;;;;;;22.10;20.70;;;;;;;;;;5074515;28;20209;-74
2021/03/01 11:22:21;;;;;;;22.95;21.40;;;;;;;;;;5072721;28;20202;-74
2021/03/01 11:24:48;;;;;;;23.67;21.88;;;;;;;;;;5074513;28;20189;-74
2021/03/01 11:27:15;;;;;;;22.83;21.33;;;;;;;;;;5074568;28;20638;-74
2021/03/01 11:29:42;;;;;;;24.05;22.25;;;;;;;;;;5082192;28;20205;-74
2021/03/01 11:32:09;;;;;;;23.70;22.10;;;;;;;;;;5094379;28;20231;-74
2021/03/01 11:34:37;;;;;;;23.70;21.90;;;;;;;;;;5094918;28;20666;-74
2021/03/01 11:37:04;;;;;;;23.58;22.00;;;;;;;;;;5094591;28;20193;-74
2021/03/01 11:39:31;;;;;;;23.27;21.58;;;;;;;;;;5094565;28;20189;-74
2021/03/01 11:41:58;;;;;;;24.15;22.45;;;;;;;;;;5094476;28;20198;-74
2021/03/01 11:44:24;;;;;;;23.92;22.33;;;;;;;;;;5095023;28;20200;-73
2021/03/01 11:46:51;;;;;;;23.60;21.83;;;;;;;;;;5094437;28;20315;-74
2021/03/01 11:49:18;;;;;;;24.48;22.70;;;;;;;;;;5093885;28;20755;-74
2021/03/01 11:51:46;;;;;;;23.92;22.27;;;;;;;;;;5093710;28;20200;-74
2021/03/01 11:54:13;;;;;;;23.90;22.20;;;;;;;;;;5093736;28;20707;-75
2021/03/01 11:56:40;;;;;;;24.20;22.40;;;;;;;;;;5094291;28;20200;-75
2021/03/01 11:59:07;;;;;;;24.02;22.33;;;;;;;;;;5093953;28;20225;-74
2021/03/01 12:01:34;;;;;;;22.60;21.00;;;;;;;;;;5094016;28;20653;-74
2021/03/01 12:04:01;;;;;;;22.45;20.75;;;;;;;;;;5093700;28;20209;-74
2021/03/01 12:06:28;;;;;;;24.00;22.30;;;;;;;;;;5094174;28;20599;-74
2021/03/01 12:08:56;;;;;;;23.00;21.40;;;;;;;;;;5093441;28;20238;-74
2021/03/01 12:11:23;;;;;;;22.42;20.98;;;;;;;;;;5094154;28;20220;-74
2021/03/01 12:13:51;;;;;;;23.77;22.15;;;;;;;;;;5093833;28;20197;-74
2021/03/01 12:16:18;;;;;;;22.70;21.00;;;;;;;;;;5093759;28;20192;-74
2021/03/01 12:18:44;;;;;;;23.83;22.02;;;;;;;;;;5093654;28;20195;-74
2021/03/01 12:21:12;;;;;;;23.10;21.40;;;;;;;;;;5093925;28;20197;-74
2021/03/01 12:23:39;;;;;;;20.42;19.13;;;;;;;;;;5094345;28;20209;-74
2021/03/01 12:26:08;;;;;;;23.88;22.10;;;;;;;;;;5093982;28;20190;-74
2021/03/01 12:28:34;;;;;;;24.05;22.25;;;;;;;;;;5092688;28;20221;-73
2021/03/01 12:31:01;;;;;;;23.58;21.88;;;;;;;;;;5093910;28;20192;-74
2021/03/01 12:33:28;;;;;;;23.85;22.25;;;;;;;;;;5093841;28;20204;-74
2021/03/01 12:35:55;;;;;;;24.35;22.50;;;;;;;;;;5093585;28;20639;-74
2021/03/01 12:38:22;;;;;;;24.88;23.17;;;;;;;;;;5093145;28;20208;-74
2021/03/01 12:40:49;;;;;;;24.15;22.42;;;;;;;;;;5093840;28;20528;-74
2021/03/01 12:43:17;;;;;;;23.30;21.70;;;;;;;;;;5097622;28;20192;-74
2021/03/01 12:45:44;;;;;;;25.60;23.70;;;;;;;;;;5097875;28;20198;-74
2021/03/01 12:48:11;;;;;;;24.73;23.02;;;;;;;;;;5097529;28;20237;-74
2021/03/01 12:50:37;;;;;;;24.58;22.88;;;;;;;;;;5097821;28;20189;-74
2021/03/01 12:53:04;;;;;;;24.15;22.45;;;;;;;;;;5097329;28;20204;-74
2021/03/01 12:55:31;;;;;;;24.30;22.60;;;;;;;;;;5097707;28;20189;-74
2021/03/01 12:57:58;;;;;;;24.52;22.73;;;;;;;;;;5097397;28;20658;-74
2021/03/01 13:00:26;;;;;;;25.00;22.88;;;;;;;;;;5097515;28;20219;-73
2021/03/01 13:02:56;;;;;;;24.42;22.63;;;;;;;;;;5097127;28;20204;-74
2021/03/01 13:05:23;;;;;;;23.45;21.85;;;;;;;;;;5096886;28;20212;-73
2021/03/01 13:07:50;;;;;;;24.85;23.15;;;;;;;;;;5096424;28;20209;-73
2021/03/01 13:10:17;;;;;;;25.58;23.77;;;;;;;;;;5096848;28;20215;-74
2021/03/01 13:12:44;;;;;;;23.57;21.97;;;;;;;;;;5097058;28;20208;-73
2021/03/01 13:15:11;;;;;;;25.15;23.35;;;;;;;;;;5097065;28;20418;-74
2021/03/01 13:17:39;;;;;;;24.57;22.63;;;;;;;;;;5096950;28;20189;-74
2021/03/01 13:20:07;;;;;;;24.55;22.85;;;;;;;;;;5096841;28;20450;-74
2021/03/01 13:22:34;;;;;;;25.40;23.60;;;;;;;;;;5096954;28;20565;-74
2021/03/01 13:25:01;;;;;;;24.23;22.53;;;;;;;;;;5095496;28;20636;-73
2021/03/01 13:27:28;;;;;;;24.48;22.65;;;;;;;;;;5096813;28;20414;-74
2021/03/01 13:29:55;;;;;;;24.57;22.97;;;;;;;;;;5096566;28;20759;-74
2021/03/01 13:32:22;;;;;;;24.57;22.80;;;;;;;;;;5097062;28;20435;-74
2021/03/01 13:34:52;;;;;;;25.15;23.35;;;;;;;;;;5096701;28;20446;-74
2021/03/01 13:37:19;;;;;;;25.48;23.25;;;;;;;;;;5096794;28;20638;-74
2021/03/01 13:39:45;;;;;;;24.52;22.83;;;;;;;;;;5096624;28;20210;-74
2021/03/01 13:42:12;;;;;;;25.33;23.30;;;;;;;;;;5096586;28;20643;-74
2021/03/01 13:44:39;;;;;;;25.13;23.40;;;;;;;;;;5096788;28;20190;-77
2021/03/01 13:47:06;;;;;;;24.90;23.23;;;;;;;;;;5095910;28;20561;-77
2021/03/01 13:49:33;;;;;;;26.27;24.13;;;;;;;;;;5095547;28;20693;-73
2021/03/01 13:52:01;;;;;;;25.05;23.10;;;;;;;;;;5095823;28;20651;-75
2021/03/01 13:54:28;;;;;;;24.63;22.92;;;;;;;;;;5095897;28;20634;-76
2021/03/01 13:56:55;;;;;;;26.27;24.33;;;;;;;;;;5095900;28;20624;-85
2021/03/01 13:59:22;;;;;;;25.75;23.75;;;;;;;;;;5090053;28;20255;-81
2021/03/01 14:01:49;;;;;;;24.42;22.67;;;;;;;;;;5068241;28;20234;-80
2021/03/01 14:04:16;;;;;;;26.20;24.30;;;;;;;;;;5063648;28;20225;-85
2021/03/01 14:06:43;;;;;;;25.38;23.48;;;;;;;;;;5082038;28;20220;-84
2021/03/01 14:09:11;;;;;;;26.00;24.00;;;;;;;;;;5096856;28;20233;-73
2021/03/01 14:11:38;;;;;;;27.17;24.92;;;;;;;;;;5095478;28;20646;-78
2021/03/01 14:14:05;;;;;;;27.08;25.15;;;;;;;;;;5095981;28;20193;-73
2021/03/01 14:16:32;;;;;;;26.58;24.58;;;;;;;;;;5095570;28;20235;-73
2021/03/01 14:18:59;;;;;;;25.60;23.80;;;;;;;;;;5094765;28;20216;-74
2021/03/01 14:21:26;;;;;;;25.67;23.88;;;;;;;;;;5095607;28;20436;-74
2021/03/01 14:23:54;;;;;;;26.47;24.43;;;;;;;;;;5095926;28;20185;-74